sensor_id;sensor_type;location;lat;lon;timestamp;P1;P2;P0
55043;PMS5003;54902;50.420;18.854;2024-01-10T00:00:16;40;34;24
55043;PMS5003;54902;50.420;18.854;2024-01-10T00:00:47;40;34;24
55043;PMS5003;54902;50.420;18.854;2024-01-10T00:01:18;40;34;24
55043;PMS5003;54902;50.420;18.854;2024-01-10T00:01:56;40;34;24
55043;PMS5003;54902;50.420;18.854;2024-01-10T00:02:27;53;46;29
55043;PMS5003;54902;50.420;18.854;2024-01-10T00:02:58;53;46;29
55043;PMS5003;54902;50.420;18.854;2024-01-10T00:03:28;53;46;29
55043;PMS5003;54902;50.420;18.854;2024-01-10T00:03:59;53;44;22
55043;PMS5003;54902;50.420;18.854;2024-01-10T00:04:30;53;44;22
55043;PMS5003;54902;50.420;18.854;2024-01-10T00:05:01;53;44;22
55043;PMS5003;54902;50.420;18.854;2024-01-10T00:05:34;53;44;22
55043;PMS5003;54902;50.420;18.854;2024-01-10T00:06:05;53;44;22
55043;PMS5003;54902;50.420;18.854;2024-01-10T00:06:36;53;44;22
55043;PMS5003;54902;50.420;18.854;2024-01-10T00:07:07;53;44;22
55043;PMS5003;54902;50.420;18.854;2024-01-10T00:07:38;53;44;22
55043;PMS5003;54902;50.420;18.854;2024-01-10T00:08:09;53;44;22
55043;PMS5003;54902;50.420;18.854;2024-01-10T00:08:40;53;44;22
55043;PMS5003;54902;50.420;18.854;2024-01-10T00:09:11;70;58;30
55043;PMS5003;54902;50.420;18.854;2024-01-10T00:09:42;70;58;30
55043;PMS5003;54902;50.420;18.854;2024-01-10T00:10:13;70;58;30
55043;PMS5003;54902;50.420;18.854;2024-01-10T00:10:44;70;58;30
55043;PMS5003;54902;50.420;18.854;2024-01-10T00:11:15;70;58;30
55043;PMS5003;54902;50.420;18.854;2024-01-10T00:11:46;70;58;30
55043;PMS5003;54902;50.420;18.854;2024-01-10T00:12:18;70;58;30
55043;PMS5003;54902;50.420;18.854;2024-01-10T00:12:49;70;58;30
55043;PMS5003;54902;50.420;18.854;2024-01-10T00:13:20;70;58;30
55043;PMS5003;54902;50.420;18.854;2024-01-10T00:13:52;70;58;30
55043;PMS5003;54902;50.420;18.854;2024-01-10T00:14:25;70;58;30
55043;PMS5003;54902;50.420;18.854;2024-01-10T00:14:56;70;58;30
55043;PMS5003;54902;50.420;18.854;2024-01-10T00:15:27;70;58;30
55043;PMS5003;54902;50.420;18.854;2024-01-10T00:15:58;70;58;30
55043;PMS5003;54902;50.420;18.854;2024-01-10T00:16:29;70;58;30
55043;PMS5003;54902;50.420;18.854;2024-01-10T00:17:00;70;58;30
55043;PMS5003;54902;50.420;18.854;2024-01-10T00:17:31;70;58;30
55043;PMS5003;54902;50.420;18.854;2024-01-10T00:18:02;70;58;30
55043;PMS5003;54902;50.420;18.854;2024-01-10T00:18:33;70;58;30
55043;PMS5003;54902;50.420;18.854;2024-01-10T00:19:05;70;58;30
55043;PMS5003;54902;50.420;18.854;2024-01-10T00:19:36;53;40;24
55043;PMS5003;54902;50.420;18.854;2024-01-10T00:20:07;53;40;24
55043;PMS5003;54902;50.420;18.854;2024-01-10T00:20:38;53;40;24
55043;PMS5003;54902;50.420;18.854;2024-01-10T00:21:10;53;40;24
55043;PMS5003;54902;50.420;18.854;2024-01-10T00:21:42;53;40;24
55043;PMS5003;54902;50.420;18.854;2024-01-10T00:22:12;53;40;24
55043;PMS5003;54902;50.420;18.854;2024-01-10T00:22:43;53;40;24
55043;PMS5003;54902;50.420;18.854;2024-01-10T00:23:14;53;40;24
55043;PMS5003;54902;50.420;18.854;2024-01-10T00:23:45;53;40;24
55043;PMS5003;54902;50.420;18.854;2024-01-10T00:24:16;53;40;24
55043;PMS5003;54902;50.420;18.854;2024-01-10T00:24:47;78;60;33
55043;PMS5003;54902;50.420;18.854;2024-01-10T00:25:18;78;60;33
55043;PMS5003;54902;50.420;18.854;2024-01-10T00:25:49;78;60;33
55043;PMS5003;54902;50.420;18.854;2024-01-10T00:26:20;78;60;33
55043;PMS5003;54902;50.420;18.854;2024-01-10T00:26:51;78;60;33
55043;PMS5003;54902;50.420;18.854;2024-01-10T00:27:22;78;60;33
55043;PMS5003;54902;50.420;18.854;2024-01-10T00:27:53;78;60;33
55043;PMS5003;54902;50.420;18.854;2024-01-10T00:28:24;78;60;33
55043;PMS5003;54902;50.420;18.854;2024-01-10T00:28:56;78;60;33
55043;PMS5003;54902;50.420;18.854;2024-01-10T00:29:27;78;60;33
55043;PMS5003;54902;50.420;18.854;2024-01-10T00:29:57;78;60;33
55043;PMS5003;54902;50.420;18.854;2024-01-10T00:30:28;78;60;33
55043;PMS5003;54902;50.420;18.854;2024-01-10T00:30:59;78;60;33
55043;PMS5003;54902;50.420;18.854;2024-01-10T00:31:30;78;60;33
55043;PMS5003;54902;50.420;18.854;2024-01-10T00:32:02;78;60;33
55043;PMS5003;54902;50.420;18.854;2024-01-10T00:32:33;78;60;33
55043;PMS5003;54902;50.420;18.854;2024-01-10T00:33:04;78;60;33
55043;PMS5003;54902;50.420;18.854;2024-01-10T00:33:35;78;60;33
55043;PMS5003;54902;50.420;18.854;2024-01-10T00:34:06;78;60;33
55043;PMS5003;54902;50.420;18.854;2024-01-10T00:34:37;78;60;33
55043;PMS5003;54902;50.420;18.854;2024-01-10T00:35:08;78;60;33
55043;PMS5003;54902;50.420;18.854;2024-01-10T00:35:41;78;60;33
55043;PMS5003;54902;50.420;18.854;2024-01-10T00:36:12;78;60;33
55043;PMS5003;54902;50.420;18.854;2024-01-10T00:36:43;78;60;33
55043;PMS5003;54902;50.420;18.854;2024-01-10T00:37:14;78;60;33
55043;PMS5003;54902;50.420;18.854;2024-01-10T00:37:45;78;60;33
55043;PMS5003;54902;50.420;18.854;2024-01-10T00:38:16;78;60;33
55043;PMS5003;54902;50.420;18.854;2024-01-10T00:38:47;78;60;33
55043;PMS5003;54902;50.420;18.854;2024-01-10T00:39:18;78;60;33
55043;PMS5003;54902;50.420;18.854;2024-01-10T00:39:49;78;60;33
55043;PMS5003;54902;50.420;18.854;2024-01-10T00:40:19;78;60;33
55043;PMS5003;54902;50.420;18.854;2024-01-10T00:40:50;78;60;33
55043;PMS5003;54902;50.420;18.854;2024-01-10T00:41:21;78;60;33
55043;PMS5003;54902;50.420;18.854;2024-01-10T00:41:52;78;60;33
55043;PMS5003;54902;50.420;18.854;2024-01-10T00:42:23;78;60;33
55043;PMS5003;54902;50.420;18.854;2024-01-10T00:42:54;78;60;33
55043;PMS5003;54902;50.420;18.854;2024-01-10T00:43:25;78;60;33
55043;PMS5003;54902;50.420;18.854;2024-01-10T00:43:56;78;60;33
55043;PMS5003;54902;50.420;18.854;2024-01-10T00:44:27;78;60;33
55043;PMS5003;54902;50.420;18.854;2024-01-10T00:44:58;78;60;33
55043;PMS5003;54902;50.420;18.854;2024-01-10T00:45:29;78;60;33
55043;PMS5003;54902;50.420;18.854;2024-01-10T00:46:00;78;60;33
55043;PMS5003;54902;50.420;18.854;2024-01-10T00:46:31;46;39;24
55043;PMS5003;54902;50.420;18.854;2024-01-10T00:47:01;46;39;24
55043;PMS5003;54902;50.420;18.854;2024-01-10T00:47:33;46;39;24
55043;PMS5003;54902;50.420;18.854;2024-01-10T00:48:04;46;39;24
55043;PMS5003;54902;50.420;18.854;2024-01-10T00:48:35;46;39;24
55043;PMS5003;54902;50.420;18.854;2024-01-10T00:49:06;46;39;24
55043;PMS5003;54902;50.420;18.854;2024-01-10T00:49:37;46;39;24
55043;PMS5003;54902;50.420;18.854;2024-01-10T00:50:08;46;39;24
55043;PMS5003;54902;50.420;18.854;2024-01-10T00:50:39;72;56;34
55043;PMS5003;54902;50.420;18.854;2024-01-10T00:51:10;72;56;34
55043;PMS5003;54902;50.420;18.854;2024-01-10T00:51:41;72;56;34
55043;PMS5003;54902;50.420;18.854;2024-01-10T00:52:12;72;56;34
55043;PMS5003;54902;50.420;18.854;2024-01-10T00:52:44;72;56;34
55043;PMS5003;54902;50.420;18.854;2024-01-10T00:53:15;72;56;34
55043;PMS5003;54902;50.420;18.854;2024-01-10T00:53:46;72;56;34
55043;PMS5003;54902;50.420;18.854;2024-01-10T00:54:17;60;48;30
55043;PMS5003;54902;50.420;18.854;2024-01-10T00:54:48;60;48;30
55043;PMS5003;54902;50.420;18.854;2024-01-10T00:55:18;60;48;30
55043;PMS5003;54902;50.420;18.854;2024-01-10T00:55:50;46;38;26
55043;PMS5003;54902;50.420;18.854;2024-01-10T00:56:21;46;38;26
55043;PMS5003;54902;50.420;18.854;2024-01-10T00:56:52;46;38;26
55043;PMS5003;54902;50.420;18.854;2024-01-10T00:57:22;46;38;26
55043;PMS5003;54902;50.420;18.854;2024-01-10T00:57:53;46;38;26
55043;PMS5003;54902;50.420;18.854;2024-01-10T00:58:24;46;38;26
55043;PMS5003;54902;50.420;18.854;2024-01-10T00:58:55;46;38;26
55043;PMS5003;54902;50.420;18.854;2024-01-10T00:59:28;46;38;26
55043;PMS5003;54902;50.420;18.854;2024-01-10T00:59:59;46;38;26
55043;PMS5003;54902;50.420;18.854;2024-01-10T01:00:30;46;38;26
55043;PMS5003;54902;50.420;18.854;2024-01-10T01:01:02;60;49;33
55043;PMS5003;54902;50.420;18.854;2024-01-10T01:01:33;60;49;33
55043;PMS5003;54902;50.420;18.854;2024-01-10T01:02:04;60;49;33
55043;PMS5003;54902;50.420;18.854;2024-01-10T01:02:35;60;49;33
55043;PMS5003;54902;50.420;18.854;2024-01-10T01:03:06;60;49;33
55043;PMS5003;54902;50.420;18.854;2024-01-10T01:03:40;60;49;33
55043;PMS5003;54902;50.420;18.854;2024-01-10T01:04:11;60;49;33
55043;PMS5003;54902;50.420;18.854;2024-01-10T01:04:42;60;49;33
55043;PMS5003;54902;50.420;18.854;2024-01-10T01:05:13;60;49;33
55043;PMS5003;54902;50.420;18.854;2024-01-10T01:05:44;54;44;29
55043;PMS5003;54902;50.420;18.854;2024-01-10T01:06:15;20;8;0
55043;PMS5003;54902;50.420;18.854;2024-01-10T01:06:45;20;8;0
55043;PMS5003;54902;50.420;18.854;2024-01-10T01:07:16;20;8;0
55043;PMS5003;54902;50.420;18.854;2024-01-10T01:07:47;20;8;0
55043;PMS5003;54902;50.420;18.854;2024-01-10T01:08:18;20;8;0
55043;PMS5003;54902;50.420;18.854;2024-01-10T01:08:49;20;8;0
55043;PMS5003;54902;50.420;18.854;2024-01-10T01:09:20;20;8;0
55043;PMS5003;54902;50.420;18.854;2024-01-10T01:09:51;20;8;0
55043;PMS5003;54902;50.420;18.854;2024-01-10T01:10:22;20;8;0
55043;PMS5003;54902;50.420;18.854;2024-01-10T01:10:53;20;8;0
55043;PMS5003;54902;50.420;18.854;2024-01-10T01:11:24;27;13;0
55043;PMS5003;54902;50.420;18.854;2024-01-10T01:11:55;31;25;10
55043;PMS5003;54902;50.420;18.854;2024-01-10T01:12:26;31;25;10
55043;PMS5003;54902;50.420;18.854;2024-01-10T01:12:57;31;25;10
55043;PMS5003;54902;50.420;18.854;2024-01-10T01:13:28;31;25;10
55043;PMS5003;54902;50.420;18.854;2024-01-10T01:13:59;31;25;10
55043;PMS5003;54902;50.420;18.854;2024-01-10T01:14:30;31;25;10
55043;PMS5003;54902;50.420;18.854;2024-01-10T01:15:01;31;25;10
55043;PMS5003;54902;50.420;18.854;2024-01-10T01:15:32;31;25;10
55043;PMS5003;54902;50.420;18.854;2024-01-10T01:16:03;31;25;10
55043;PMS5003;54902;50.420;18.854;2024-01-10T01:16:35;58;45;19
55043;PMS5003;54902;50.420;18.854;2024-01-10T01:17:06;58;45;19
55043;PMS5003;54902;50.420;18.854;2024-01-10T01:17:37;58;45;19
55043;PMS5003;54902;50.420;18.854;2024-01-10T01:18:08;42;36;20
55043;PMS5003;54902;50.420;18.854;2024-01-10T01:18:42;42;36;20
55043;PMS5003;54902;50.420;18.854;2024-01-10T01:19:15;42;36;20
55043;PMS5003;54902;50.420;18.854;2024-01-10T01:19:46;42;36;20
55043;PMS5003;54902;50.420;18.854;2024-01-10T01:20:17;42;36;20
55043;PMS5003;54902;50.420;18.854;2024-01-10T01:20:48;42;36;20
55043;PMS5003;54902;50.420;18.854;2024-01-10T01:21:21;42;36;20
55043;PMS5003;54902;50.420;18.854;2024-01-10T01:21:52;62;48;28
55043;PMS5003;54902;50.420;18.854;2024-01-10T01:22:23;62;48;28
55043;PMS5003;54902;50.420;18.854;2024-01-10T01:22:54;62;48;28
55043;PMS5003;54902;50.420;18.854;2024-01-10T01:23:25;62;48;28
55043;PMS5003;54902;50.420;18.854;2024-01-10T01:23:56;62;48;28
55043;PMS5003;54902;50.420;18.854;2024-01-10T01:24:27;62;48;28
55043;PMS5003;54902;50.420;18.854;2024-01-10T01:24:58;62;48;28
55043;PMS5003;54902;50.420;18.854;2024-01-10T01:25:29;62;48;28
55043;PMS5003;54902;50.420;18.854;2024-01-10T01:25:59;62;48;28
55043;PMS5003;54902;50.420;18.854;2024-01-10T01:26:30;62;48;28
55043;PMS5003;54902;50.420;18.854;2024-01-10T01:27:02;67;52;31
55043;PMS5003;54902;50.420;18.854;2024-01-10T01:27:33;67;52;31
55043;PMS5003;54902;50.420;18.854;2024-01-10T01:28:05;67;52;31
55043;PMS5003;54902;50.420;18.854;2024-01-10T01:28:36;67;52;31
55043;PMS5003;54902;50.420;18.854;2024-01-10T01:29:07;67;52;31
55043;PMS5003;54902;50.420;18.854;2024-01-10T01:29:39;67;52;31
55043;PMS5003;54902;50.420;18.854;2024-01-10T01:30:10;67;52;31
55043;PMS5003;54902;50.420;18.854;2024-01-10T01:30:42;67;52;31
55043;PMS5003;54902;50.420;18.854;2024-01-10T01:31:13;67;52;31
55043;PMS5003;54902;50.420;18.854;2024-01-10T01:31:44;67;52;31
55043;PMS5003;54902;50.420;18.854;2024-01-10T01:32:15;67;52;31
55043;PMS5003;54902;50.420;18.854;2024-01-10T01:32:46;67;52;31
55043;PMS5003;54902;50.420;18.854;2024-01-10T01:33:16;67;52;31
55043;PMS5003;54902;50.420;18.854;2024-01-10T01:33:47;67;52;31
55043;PMS5003;54902;50.420;18.854;2024-01-10T01:34:18;67;52;31
55043;PMS5003;54902;50.420;18.854;2024-01-10T01:34:49;67;52;31
55043;PMS5003;54902;50.420;18.854;2024-01-10T01:35:20;67;52;31
55043;PMS5003;54902;50.420;18.854;2024-01-10T01:35:53;67;52;31
55043;PMS5003;54902;50.420;18.854;2024-01-10T01:36:24;67;52;31
55043;PMS5003;54902;50.420;18.854;2024-01-10T01:36:55;67;52;31
55043;PMS5003;54902;50.420;18.854;2024-01-10T01:37:26;67;52;31
55043;PMS5003;54902;50.420;18.854;2024-01-10T01:37:57;67;52;31
55043;PMS5003;54902;50.420;18.854;2024-01-10T01:38:28;45;38;25
55043;PMS5003;54902;50.420;18.854;2024-01-10T01:38:59;45;38;25
55043;PMS5003;54902;50.420;18.854;2024-01-10T01:39:30;45;38;25
55043;PMS5003;54902;50.420;18.854;2024-01-10T01:40:00;45;38;25
55043;PMS5003;54902;50.420;18.854;2024-01-10T01:40:31;45;38;25
55043;PMS5003;54902;50.420;18.854;2024-01-10T01:41:02;45;38;25
55043;PMS5003;54902;50.420;18.854;2024-01-10T01:41:35;45;38;25
55043;PMS5003;54902;50.420;18.854;2024-01-10T01:42:06;45;38;25
55043;PMS5003;54902;50.420;18.854;2024-01-10T01:42:37;64;55;35
55043;PMS5003;54902;50.420;18.854;2024-01-10T01:43:54;64;55;35
55043;PMS5003;54902;50.420;18.854;2024-01-10T01:44:25;64;55;35
55043;PMS5003;54902;50.420;18.854;2024-01-10T01:44:56;52;45;28
55043;PMS5003;54902;50.420;18.854;2024-01-10T01:45:26;52;45;28
55043;PMS5003;54902;50.420;18.854;2024-01-10T01:45:57;52;45;28
55043;PMS5003;54902;50.420;18.854;2024-01-10T01:46:29;52;45;28
55043;PMS5003;54902;50.420;18.854;2024-01-10T01:47:01;52;45;28
55043;PMS5003;54902;50.420;18.854;2024-01-10T01:47:33;52;45;28
55043;PMS5003;54902;50.420;18.854;2024-01-10T01:48:04;68;54;34
55043;PMS5003;54902;50.420;18.854;2024-01-10T01:48:35;68;54;34
55043;PMS5003;54902;50.420;18.854;2024-01-10T01:49:06;68;54;34
55043;PMS5003;54902;50.420;18.854;2024-01-10T01:49:38;68;54;34
55043;PMS5003;54902;50.420;18.854;2024-01-10T01:50:09;68;54;34
55043;PMS5003;54902;50.420;18.854;2024-01-10T01:50:41;68;54;34
55043;PMS5003;54902;50.420;18.854;2024-01-10T01:51:12;68;54;34
55043;PMS5003;54902;50.420;18.854;2024-01-10T01:51:44;68;54;34
55043;PMS5003;54902;50.420;18.854;2024-01-10T01:52:16;68;54;34
55043;PMS5003;54902;50.420;18.854;2024-01-10T01:52:47;68;54;34
55043;PMS5003;54902;50.420;18.854;2024-01-10T01:53:19;53;44;27
55043;PMS5003;54902;50.420;18.854;2024-01-10T01:53:53;53;44;27
55043;PMS5003;54902;50.420;18.854;2024-01-10T01:54:26;53;44;27
55043;PMS5003;54902;50.420;18.854;2024-01-10T01:54:57;53;44;27
55043;PMS5003;54902;50.420;18.854;2024-01-10T01:55:28;53;44;27
55043;PMS5003;54902;50.420;18.854;2024-01-10T01:56:00;53;44;27
55043;PMS5003;54902;50.420;18.854;2024-01-10T01:56:36;53;44;27
55043;PMS5003;54902;50.420;18.854;2024-01-10T01:57:07;53;44;27
55043;PMS5003;54902;50.420;18.854;2024-01-10T01:57:38;53;44;27
55043;PMS5003;54902;50.420;18.854;2024-01-10T01:58:10;53;44;27
55043;PMS5003;54902;50.420;18.854;2024-01-10T01:58:43;70;58;36
55043;PMS5003;54902;50.420;18.854;2024-01-10T01:59:16;70;58;36
55043;PMS5003;54902;50.420;18.854;2024-01-10T01:59:47;70;58;36
55043;PMS5003;54902;50.420;18.854;2024-01-10T02:00:18;70;58;36
55043;PMS5003;54902;50.420;18.854;2024-01-10T02:00:49;70;58;36
55043;PMS5003;54902;50.420;18.854;2024-01-10T02:01:21;70;58;36
55043;PMS5003;54902;50.420;18.854;2024-01-10T02:01:53;58;49;32
55043;PMS5003;54902;50.420;18.854;2024-01-10T02:02:28;58;49;32
55043;PMS5003;54902;50.420;18.854;2024-01-10T02:03:01;58;49;32
55043;PMS5003;54902;50.420;18.854;2024-01-10T02:03:33;58;49;32
55043;PMS5003;54902;50.420;18.854;2024-01-10T02:04:04;63;53;34
55043;PMS5003;54902;50.420;18.854;2024-01-10T02:04:35;47;38;23
55043;PMS5003;54902;50.420;18.854;2024-01-10T02:05:07;47;38;23
55043;PMS5003;54902;50.420;18.854;2024-01-10T02:05:39;47;38;23
55043;PMS5003;54902;50.420;18.854;2024-01-10T02:06:10;47;38;23
55043;PMS5003;54902;50.420;18.854;2024-01-10T02:06:42;47;38;23
55043;PMS5003;54902;50.420;18.854;2024-01-10T02:07:13;47;38;23
55043;PMS5003;54902;50.420;18.854;2024-01-10T02:07:44;47;38;23
55043;PMS5003;54902;50.420;18.854;2024-01-10T02:08:15;47;38;23
55043;PMS5003;54902;50.420;18.854;2024-01-10T02:08:46;47;38;23
55043;PMS5003;54902;50.420;18.854;2024-01-10T02:09:16;75;61;34
55043;PMS5003;54902;50.420;18.854;2024-01-10T02:09:48;75;61;34
55043;PMS5003;54902;50.420;18.854;2024-01-10T02:10:19;75;61;34
55043;PMS5003;54902;50.420;18.854;2024-01-10T02:10:50;75;61;34
55043;PMS5003;54902;50.420;18.854;2024-01-10T02:11:21;75;61;34
55043;PMS5003;54902;50.420;18.854;2024-01-10T02:11:54;75;61;34
55043;PMS5003;54902;50.420;18.854;2024-01-10T02:12:25;75;61;34
55043;PMS5003;54902;50.420;18.854;2024-01-10T02:12:56;75;61;34
55043;PMS5003;54902;50.420;18.854;2024-01-10T02:13:28;75;61;34
55043;PMS5003;54902;50.420;18.854;2024-01-10T02:14:00;69;57;30
55043;PMS5003;54902;50.420;18.854;2024-01-10T02:14:31;24;20;2
55043;PMS5003;54902;50.420;18.854;2024-01-10T02:15:02;24;20;2
55043;PMS5003;54902;50.420;18.854;2024-01-10T02:15:37;24;20;2
55043;PMS5003;54902;50.420;18.854;2024-01-10T02:16:09;24;20;2
55043;PMS5003;54902;50.420;18.854;2024-01-10T02:16:41;24;20;2
55043;PMS5003;54902;50.420;18.854;2024-01-10T02:17:12;24;20;2
55043;PMS5003;54902;50.420;18.854;2024-01-10T02:17:43;24;20;2
55043;PMS5003;54902;50.420;18.854;2024-01-10T02:18:14;24;20;2
55043;PMS5003;54902;50.420;18.854;2024-01-10T02:18:45;24;20;2
55043;PMS5003;54902;50.420;18.854;2024-01-10T02:20:36;46;34;4
55043;PMS5003;54902;50.420;18.854;2024-01-10T02:21:07;46;34;4
55043;PMS5003;54902;50.420;18.854;2024-01-10T02:21:38;46;34;4
55043;PMS5003;54902;50.420;18.854;2024-01-10T02:22:09;46;34;4
55043;PMS5003;54902;50.420;18.854;2024-01-10T02:22:41;46;34;4
55043;PMS5003;54902;50.420;18.854;2024-01-10T02:23:12;44;34;11
55043;PMS5003;54902;50.420;18.854;2024-01-10T02:23:43;44;34;11
55043;PMS5003;54902;50.420;18.854;2024-01-10T02:24:15;44;34;11
55043;PMS5003;54902;50.420;18.854;2024-01-10T02:24:52;44;34;11
55043;PMS5003;54902;50.420;18.854;2024-01-10T02:25:24;71;54;34
55043;PMS5003;54902;50.420;18.854;2024-01-10T02:25:55;71;54;34
55043;PMS5003;54902;50.420;18.854;2024-01-10T02:26:26;71;54;34
55043;PMS5003;54902;50.420;18.854;2024-01-10T02:26:57;71;54;34
55043;PMS5003;54902;50.420;18.854;2024-01-10T02:27:28;71;54;34
55043;PMS5003;54902;50.420;18.854;2024-01-10T02:27:59;71;54;34
55043;PMS5003;54902;50.420;18.854;2024-01-10T02:28:33;71;54;34
55043;PMS5003;54902;50.420;18.854;2024-01-10T02:29:07;71;54;34
55043;PMS5003;54902;50.420;18.854;2024-01-10T02:29:38;74;56;34
55043;PMS5003;54902;50.420;18.854;2024-01-10T02:30:09;74;56;34
55043;PMS5003;54902;50.420;18.854;2024-01-10T02:30:41;22;20;1
55043;PMS5003;54902;50.420;18.854;2024-01-10T02:31:12;22;20;1
55043;PMS5003;54902;50.420;18.854;2024-01-10T02:31:43;22;20;1
55043;PMS5003;54902;50.420;18.854;2024-01-10T02:32:15;22;20;1
55043;PMS5003;54902;50.420;18.854;2024-01-10T02:32:46;22;20;1
55043;PMS5003;54902;50.420;18.854;2024-01-10T02:33:17;22;20;1
55043;PMS5003;54902;50.420;18.854;2024-01-10T02:33:48;22;20;1
55043;PMS5003;54902;50.420;18.854;2024-01-10T02:34:18;22;20;1
55043;PMS5003;54902;50.420;18.854;2024-01-10T02:34:49;33;27;2
55043;PMS5003;54902;50.420;18.854;2024-01-10T02:35:20;33;27;2
55043;PMS5003;54902;50.420;18.854;2024-01-10T02:35:51;44;35;16
55043;PMS5003;54902;50.420;18.854;2024-01-10T02:36:22;44;35;16
55043;PMS5003;54902;50.420;18.854;2024-01-10T02:36:53;44;35;16
55043;PMS5003;54902;50.420;18.854;2024-01-10T02:37:24;44;35;16
55043;PMS5003;54902;50.420;18.854;2024-01-10T02:37:55;44;35;16
55043;PMS5003;54902;50.420;18.854;2024-01-10T02:38:26;44;35;16
55043;PMS5003;54902;50.420;18.854;2024-01-10T02:38:58;44;35;16
55043;PMS5003;54902;50.420;18.854;2024-01-10T02:39:29;44;35;16
55043;PMS5003;54902;50.420;18.854;2024-01-10T02:40:00;44;35;16
55043;PMS5003;54902;50.420;18.854;2024-01-10T02:40:31;44;35;16
55043;PMS5003;54902;50.420;18.854;2024-01-10T02:41:02;61;48;22
55043;PMS5003;54902;50.420;18.854;2024-01-10T02:41:33;61;48;22
55043;PMS5003;54902;50.420;18.854;2024-01-10T02:42:04;61;48;22
55043;PMS5003;54902;50.420;18.854;2024-01-10T02:42:35;61;48;22
55043;PMS5003;54902;50.420;18.854;2024-01-10T02:43:06;61;48;22
55043;PMS5003;54902;50.420;18.854;2024-01-10T02:43:39;61;48;22
55043;PMS5003;54902;50.420;18.854;2024-01-10T02:44:10;61;48;22
55043;PMS5003;54902;50.420;18.854;2024-01-10T02:44:41;61;48;22
55043;PMS5003;54902;50.420;18.854;2024-01-10T02:45:12;61;48;22
55043;PMS5003;54902;50.420;18.854;2024-01-10T02:45:43;61;48;22
55043;PMS5003;54902;50.420;18.854;2024-01-10T02:46:14;61;48;22
55043;PMS5003;54902;50.420;18.854;2024-01-10T02:46:45;61;48;22
55043;PMS5003;54902;50.420;18.854;2024-01-10T02:47:16;61;48;22
55043;PMS5003;54902;50.420;18.854;2024-01-10T02:47:47;61;48;22
55043;PMS5003;54902;50.420;18.854;2024-01-10T02:48:18;61;48;22
55043;PMS5003;54902;50.420;18.854;2024-01-10T02:48:49;61;48;22
55043;PMS5003;54902;50.420;18.854;2024-01-10T02:49:20;55;43;21
55043;PMS5003;54902;50.420;18.854;2024-01-10T02:49:51;55;43;21
55043;PMS5003;54902;50.420;18.854;2024-01-10T02:50:22;55;43;21
55043;PMS5003;54902;50.420;18.854;2024-01-10T02:50:53;55;43;21
55043;PMS5003;54902;50.420;18.854;2024-01-10T02:51:26;65;49;29
55043;PMS5003;54902;50.420;18.854;2024-01-10T02:52:00;65;49;29
55043;PMS5003;54902;50.420;18.854;2024-01-10T02:52:31;65;49;29
55043;PMS5003;54902;50.420;18.854;2024-01-10T02:53:02;65;49;29
55043;PMS5003;54902;50.420;18.854;2024-01-10T02:53:32;65;49;29
55043;PMS5003;54902;50.420;18.854;2024-01-10T02:54:04;65;49;29
55043;PMS5003;54902;50.420;18.854;2024-01-10T02:54:34;65;49;29
55043;PMS5003;54902;50.420;18.854;2024-01-10T02:55:05;70;54;31
55043;PMS5003;54902;50.420;18.854;2024-01-10T02:55:37;70;54;31
55043;PMS5003;54902;50.420;18.854;2024-01-10T02:56:08;70;54;31
55043;PMS5003;54902;50.420;18.854;2024-01-10T02:56:39;62;50;31
55043;PMS5003;54902;50.420;18.854;2024-01-10T02:57:10;62;50;31
55043;PMS5003;54902;50.420;18.854;2024-01-10T02:57:41;62;50;31
55043;PMS5003;54902;50.420;18.854;2024-01-10T02:58:12;62;50;31
55043;PMS5003;54902;50.420;18.854;2024-01-10T02:58:43;62;50;31
55043;PMS5003;54902;50.420;18.854;2024-01-10T02:59:14;62;50;31
55043;PMS5003;54902;50.420;18.854;2024-01-10T02:59:44;62;50;31
55043;PMS5003;54902;50.420;18.854;2024-01-10T03:00:16;62;50;31
55043;PMS5003;54902;50.420;18.854;2024-01-10T03:00:47;62;50;31
55043;PMS5003;54902;50.420;18.854;2024-01-10T03:01:18;62;50;31
55043;PMS5003;54902;50.420;18.854;2024-01-10T03:01:49;79;64;40
55043;PMS5003;54902;50.420;18.854;2024-01-10T03:02:20;79;64;40
55043;PMS5003;54902;50.420;18.854;2024-01-10T03:02:53;63;48;31
55043;PMS5003;54902;50.420;18.854;2024-01-10T03:03:24;63;48;31
55043;PMS5003;54902;50.420;18.854;2024-01-10T03:03:55;63;48;31
55043;PMS5003;54902;50.420;18.854;2024-01-10T03:04:26;63;48;31
55043;PMS5003;54902;50.420;18.854;2024-01-10T03:04:57;63;48;31
55043;PMS5003;54902;50.420;18.854;2024-01-10T03:05:28;63;48;31
55043;PMS5003;54902;50.420;18.854;2024-01-10T03:05:59;63;48;31
55043;PMS5003;54902;50.420;18.854;2024-01-10T03:06:30;63;48;31
55043;PMS5003;54902;50.420;18.854;2024-01-10T03:07:01;86;66;41
55043;PMS5003;54902;50.420;18.854;2024-01-10T03:07:32;86;66;41
55043;PMS5003;54902;50.420;18.854;2024-01-10T03:08:03;86;66;41
55043;PMS5003;54902;50.420;18.854;2024-01-10T03:08:37;86;66;41
55043;PMS5003;54902;50.420;18.854;2024-01-10T03:09:08;86;66;41
55043;PMS5003;54902;50.420;18.854;2024-01-10T03:09:39;86;66;41
55043;PMS5003;54902;50.420;18.854;2024-01-10T03:10:10;86;66;41
55043;PMS5003;54902;50.420;18.854;2024-01-10T03:10:40;86;66;41
55043;PMS5003;54902;50.420;18.854;2024-01-10T03:11:11;86;66;41
55043;PMS5003;54902;50.420;18.854;2024-01-10T03:11:42;86;66;41
55043;PMS5003;54902;50.420;18.854;2024-01-10T03:12:13;90;69;43
55043;PMS5003;54902;50.420;18.854;2024-01-10T03:12:44;90;69;43
55043;PMS5003;54902;50.420;18.854;2024-01-10T03:13:15;90;69;43
55043;PMS5003;54902;50.420;18.854;2024-01-10T03:13:46;90;69;43
55043;PMS5003;54902;50.420;18.854;2024-01-10T03:14:18;61;49;30
55043;PMS5003;54902;50.420;18.854;2024-01-10T03:14:49;61;49;30
55043;PMS5003;54902;50.420;18.854;2024-01-10T03:15:20;61;49;30
55043;PMS5003;54902;50.420;18.854;2024-01-10T03:15:50;61;49;30
55043;PMS5003;54902;50.420;18.854;2024-01-10T03:16:21;61;49;30
55043;PMS5003;54902;50.420;18.854;2024-01-10T03:16:52;61;49;30
55043;PMS5003;54902;50.420;18.854;2024-01-10T03:17:24;72;55;35
55043;PMS5003;54902;50.420;18.854;2024-01-10T03:17:54;72;55;35
55043;PMS5003;54902;50.420;18.854;2024-01-10T03:18:25;72;55;35
55043;PMS5003;54902;50.420;18.854;2024-01-10T03:18:56;72;55;35
55043;PMS5003;54902;50.420;18.854;2024-01-10T03:19:27;72;55;35
55043;PMS5003;54902;50.420;18.854;2024-01-10T03:19:58;72;55;35